sensor_id;sensor_type;location;lat;lon;timestamp;P1;durP1;ratioP1;P2;durP2;ratioP2
64678;SDS011;51094;53.864;27.676;2023-04-12T00:00:56;4.00;;;3.90;;
64678;SDS011;51094;53.864;27.676;2023-04-12T00:03:23;4.03;;;3.92;;
64678;SDS011;51094;53.864;27.676;2023-04-12T00:05:51;3.90;;;3.90;;
64678;SDS011;51094;53.864;27.676;2023-04-12T00:08:23;4.55;;;4.45;;
64678;SDS011;51094;53.864;27.676;2023-04-12T00:10:49;4.30;;;4.20;;
64678;SDS011;51094;53.864;27.676;2023-04-12T00:13:17;4.32;;;4.22;;
64678;SDS011;51094;53.864;27.676;2023-04-12T00:15:45;4.00;;;3.90;;
64678;SDS011;51094;53.864;27.676;2023-04-12T00:18:11;4.30;;;4.20;;
64678;SDS011;51094;53.864;27.676;2023-04-12T00:20:38;4.35;;;4.25;;
64678;SDS011;51094;53.864;27.676;2023-04-12T00:23:06;4.18;;;4.07;;
64678;SDS011;51094;53.864;27.676;2023-04-12T00:25:35;4.50;;;4.40;;
64678;SDS011;51094;53.864;27.676;2023-04-12T00:28:05;4.60;;;4.50;;
64678;SDS011;51094;53.864;27.676;2023-04-12T00:30:32;4.35;;;4.25;;
64678;SDS011;51094;53.864;27.676;2023-04-12T00:33:00;4.43;;;4.32;;
64678;SDS011;51094;53.864;27.676;2023-04-12T00:35:27;4.60;;;4.50;;
64678;SDS011;51094;53.864;27.676;2023-04-12T00:37:54;4.20;;;4.10;;
64678;SDS011;51094;53.864;27.676;2023-04-12T00:40:22;4.20;;;4.20;;
64678;SDS011;51094;53.864;27.676;2023-04-12T00:42:49;4.43;;;4.32;;
64678;SDS011;51094;53.864;27.676;2023-04-12T00:45:17;4.10;;;4.00;;
64678;SDS011;51094;53.864;27.676;2023-04-12T00:47:44;4.60;;;4.50;;
64678;SDS011;51094;53.864;27.676;2023-04-12T00:50:12;4.70;;;4.60;;
64678;SDS011;51094;53.864;27.676;2023-04-12T00:52:40;4.20;;;4.10;;
64678;SDS011;51094;53.864;27.676;2023-04-12T00:55:07;4.40;;;4.30;;
64678;SDS011;51094;53.864;27.676;2023-04-12T00:57:37;4.65;;;4.55;;
64678;SDS011;51094;53.864;27.676;2023-04-12T01:00:05;4.40;;;4.30;;
64678;SDS011;51094;53.864;27.676;2023-04-12T01:02:41;4.50;;;4.40;;
64678;SDS011;51094;53.864;27.676;2023-04-12T01:05:13;4.53;;;4.43;;
64678;SDS011;51094;53.864;27.676;2023-04-12T01:15:40;4.40;;;4.30;;
64678;SDS011;51094;53.864;27.676;2023-04-12T01:18:18;4.65;;;4.55;;
64678;SDS011;51094;53.864;27.676;2023-04-12T01:20:53;4.38;;;4.28;;
64678;SDS011;51094;53.864;27.676;2023-04-12T01:23:42;4.53;;;4.43;;
64678;SDS011;51094;53.864;27.676;2023-04-12T01:26:40;4.50;;;4.40;;
64678;SDS011;51094;53.864;27.676;2023-04-12T01:29:08;4.30;;;4.20;;
64678;SDS011;51094;53.864;27.676;2023-04-12T01:31:38;4.20;;;4.15;;
64678;SDS011;51094;53.864;27.676;2023-04-12T01:34:07;4.28;;;4.18;;
64678;SDS011;51094;53.864;27.676;2023-04-12T01:36:37;4.65;;;4.55;;
64678;SDS011;51094;53.864;27.676;2023-04-12T01:39:05;4.45;;;4.40;;
64678;SDS011;51094;53.864;27.676;2023-04-12T01:41:37;4.70;;;4.60;;
64678;SDS011;51094;53.864;27.676;2023-04-12T01:44:07;4.80;;;4.70;;
64678;SDS011;51094;53.864;27.676;2023-04-12T01:46:34;4.50;;;4.40;;
64678;SDS011;51094;53.864;27.676;2023-04-12T01:49:02;4.90;;;4.80;;
64678;SDS011;51094;53.864;27.676;2023-04-12T01:51:48;4.60;;;4.50;;
64678;SDS011;51094;53.864;27.676;2023-04-12T01:54:22;4.40;;;4.30;;
64678;SDS011;51094;53.864;27.676;2023-04-12T01:56:53;4.70;;;4.60;;
64678;SDS011;51094;53.864;27.676;2023-04-12T02:02:22;4.60;;;4.50;;
64678;SDS011;51094;53.864;27.676;2023-04-12T02:04:49;4.55;;;4.45;;
64678;SDS011;51094;53.864;27.676;2023-04-12T02:07:20;4.75;;;4.65;;
64678;SDS011;51094;53.864;27.676;2023-04-12T02:09:47;4.65;;;4.55;;
64678;SDS011;51094;53.864;27.676;2023-04-12T02:12:18;4.90;;;4.80;;
64678;SDS011;51094;53.864;27.676;2023-04-12T02:14:45;4.50;;;4.40;;
64678;SDS011;51094;53.864;27.676;2023-04-12T02:17:12;4.93;;;4.82;;
64678;SDS011;51094;53.864;27.676;2023-04-12T02:19:39;4.45;;;4.35;;
64678;SDS011;51094;53.864;27.676;2023-04-12T02:22:06;4.40;;;4.30;;
64678;SDS011;51094;53.864;27.676;2023-04-12T02:24:33;4.60;;;4.50;;
64678;SDS011;51094;53.864;27.676;2023-04-12T02:27:00;4.38;;;4.38;;
64678;SDS011;51094;53.864;27.676;2023-04-12T02:29:27;4.57;;;4.47;;
64678;SDS011;51094;53.864;27.676;2023-04-12T02:31:55;4.57;;;4.47;;
64678;SDS011;51094;53.864;27.676;2023-04-12T02:34:24;4.55;;;4.45;;
64678;SDS011;51094;53.864;27.676;2023-04-12T02:36:59;4.70;;;4.60;;
64678;SDS011;51094;53.864;27.676;2023-04-12T02:39:25;4.55;;;4.45;;
64678;SDS011;51094;53.864;27.676;2023-04-12T02:41:55;4.43;;;4.32;;
64678;SDS011;51094;53.864;27.676;2023-04-12T02:44:22;4.57;;;4.47;;
64678;SDS011;51094;53.864;27.676;2023-04-12T02:47:25;4.25;;;4.18;;
64678;SDS011;51094;53.864;27.676;2023-04-12T02:49:57;4.90;;;4.80;;
64678;SDS011;51094;53.864;27.676;2023-04-12T02:52:23;4.60;;;4.53;;
64678;SDS011;51094;53.864;27.676;2023-04-12T02:55:06;4.85;;;4.75;;
64678;SDS011;51094;53.864;27.676;2023-04-12T02:57:34;5.10;;;5.00;;
64678;SDS011;51094;53.864;27.676;2023-04-12T03:00:03;5.00;;;4.90;;
64678;SDS011;51094;53.864;27.676;2023-04-12T03:02:51;4.90;;;4.80;;
64678;SDS011;51094;53.864;27.676;2023-04-12T03:05:25;5.22;;;5.13;;
64678;SDS011;51094;53.864;27.676;2023-04-12T03:07:53;4.95;;;4.85;;
64678;SDS011;51094;53.864;27.676;2023-04-12T03:10:26;4.72;;;4.63;;
64678;SDS011;51094;53.864;27.676;2023-04-12T03:13:02;5.13;;;5.03;;
64678;SDS011;51094;53.864;27.676;2023-04-12T03:15:35;5.00;;;4.90;;
64678;SDS011;51094;53.864;27.676;2023-04-12T03:18:03;5.40;;;5.30;;
64678;SDS011;51094;53.864;27.676;2023-04-12T03:20:36;4.80;;;4.70;;
64678;SDS011;51094;53.864;27.676;2023-04-12T03:23:07;5.05;;;4.95;;
64678;SDS011;51094;53.864;27.676;2023-04-12T03:25:37;5.32;;;5.22;;
64678;SDS011;51094;53.864;27.676;2023-04-12T03:28:19;5.18;;;5.07;;
64678;SDS011;51094;53.864;27.676;2023-04-12T03:30:49;5.20;;;5.10;;
64678;SDS011;51094;53.864;27.676;2023-04-12T03:33:19;4.95;;;4.85;;
64678;SDS011;51094;53.864;27.676;2023-04-12T03:35:47;4.95;;;4.85;;
64678;SDS011;51094;53.864;27.676;2023-04-12T03:38:14;4.85;;;4.75;;
64678;SDS011;51094;53.864;27.676;2023-04-12T03:40:42;5.15;;;5.05;;
64678;SDS011;51094;53.864;27.676;2023-04-12T03:43:08;5.35;;;5.25;;
64678;SDS011;51094;53.864;27.676;2023-04-12T03:45:35;5.13;;;5.03;;
64678;SDS011;51094;53.864;27.676;2023-04-12T03:48:03;5.03;;;4.93;;
64678;SDS011;51094;53.864;27.676;2023-04-12T03:50:42;4.90;;;4.80;;
64678;SDS011;51094;53.864;27.676;2023-04-12T03:53:19;5.10;;;5.00;;
64678;SDS011;51094;53.864;27.676;2023-04-12T03:55:47;5.03;;;4.93;;
64678;SDS011;51094;53.864;27.676;2023-04-12T03:58:14;5.30;;;5.20;;
64678;SDS011;51094;53.864;27.676;2023-04-12T04:00:43;4.97;;;4.88;;
64678;SDS011;51094;53.864;27.676;2023-04-12T04:03:11;4.97;;;4.88;;
64678;SDS011;51094;53.864;27.676;2023-04-12T04:05:43;5.07;;;4.97;;
64678;SDS011;51094;53.864;27.676;2023-04-12T04:08:12;5.20;;;5.10;;
64678;SDS011;51094;53.864;27.676;2023-04-12T04:10:50;5.40;;;5.30;;
64678;SDS011;51094;53.864;27.676;2023-04-12T04:13:18;5.07;;;4.97;;
64678;SDS011;51094;53.864;27.676;2023-04-12T04:15:45;5.80;;;5.70;;
64678;SDS011;51094;53.864;27.676;2023-04-12T04:18:15;5.47;;;5.38;;
64678;SDS011;51094;53.864;27.676;2023-04-12T04:20:41;4.88;;;4.78;;
64678;SDS011;51094;53.864;27.676;2023-04-12T04:23:08;5.15;;;5.05;;
64678;SDS011;51094;53.864;27.676;2023-04-12T04:25:38;5.10;;;5.00;;
64678;SDS011;51094;53.864;27.676;2023-04-12T04:28:07;5.00;;;4.90;;
64678;SDS011;51094;53.864;27.676;2023-04-12T04:30:35;5.25;;;5.15;;
64678;SDS011;51094;53.864;27.676;2023-04-12T04:33:06;5.32;;;5.22;;
64678;SDS011;51094;53.864;27.676;2023-04-12T04:35:34;5.07;;;4.97;;
64678;SDS011;51094;53.864;27.676;2023-04-12T04:38:25;4.88;;;4.78;;
64678;SDS011;51094;53.864;27.676;2023-04-12T04:41:00;5.00;;;4.90;;
64678;SDS011;51094;53.864;27.676;2023-04-12T04:43:41;5.15;;;5.05;;
64678;SDS011;51094;53.864;27.676;2023-04-12T04:46:12;5.05;;;4.95;;
64678;SDS011;51094;53.864;27.676;2023-04-12T04:48:39;4.78;;;4.68;;
64678;SDS011;51094;53.864;27.676;2023-04-12T04:51:06;5.10;;;5.00;;
64678;SDS011;51094;53.864;27.676;2023-04-12T04:53:33;4.90;;;4.80;;
64678;SDS011;51094;53.864;27.676;2023-04-12T04:56:02;5.15;;;5.00;;
64678;SDS011;51094;53.864;27.676;2023-04-12T04:58:33;4.90;;;4.80;;
64678;SDS011;51094;53.864;27.676;2023-04-12T05:01:00;4.80;;;4.70;;
64678;SDS011;51094;53.864;27.676;2023-04-12T05:03:28;5.25;;;5.15;;
64678;SDS011;51094;53.864;27.676;2023-04-12T05:05:58;4.90;;;4.80;;
64678;SDS011;51094;53.864;27.676;2023-04-12T05:08:26;5.80;;;5.68;;
64678;SDS011;51094;53.864;27.676;2023-04-12T05:10:54;5.05;;;4.95;;
64678;SDS011;51094;53.864;27.676;2023-04-12T05:13:26;5.18;;;5.07;;
64678;SDS011;51094;53.864;27.676;2023-04-12T05:15:53;5.30;;;5.20;;
64678;SDS011;51094;53.864;27.676;2023-04-12T05:18:20;5.10;;;5.00;;
64678;SDS011;51094;53.864;27.676;2023-04-12T05:20:47;5.10;;;5.00;;
64678;SDS011;51094;53.864;27.676;2023-04-12T05:23:14;5.18;;;5.07;;
64678;SDS011;51094;53.864;27.676;2023-04-12T05:25:45;5.22;;;5.03;;
64678;SDS011;51094;53.864;27.676;2023-04-12T05:28:14;5.15;;;5.05;;
64678;SDS011;51094;53.864;27.676;2023-04-12T05:30:43;5.15;;;5.05;;
64678;SDS011;51094;53.864;27.676;2023-04-12T05:33:30;5.45;;;5.28;;
64678;SDS011;51094;53.864;27.676;2023-04-12T05:36:00;5.10;;;5.00;;
64678;SDS011;51094;53.864;27.676;2023-04-12T05:38:29;5.30;;;5.20;;
64678;SDS011;51094;53.864;27.676;2023-04-12T05:40:59;5.00;;;4.90;;
64678;SDS011;51094;53.864;27.676;2023-04-12T05:43:32;5.13;;;4.93;;
64678;SDS011;51094;53.864;27.676;2023-04-12T05:46:00;4.93;;;4.82;;
64678;SDS011;51094;53.864;27.676;2023-04-12T05:48:28;4.80;;;4.70;;
64678;SDS011;51094;53.864;27.676;2023-04-12T05:50:58;4.88;;;4.78;;
64678;SDS011;51094;53.864;27.676;2023-04-12T05:53:25;4.97;;;4.88;;
64678;SDS011;51094;53.864;27.676;2023-04-12T05:55:57;5.03;;;4.93;;
64678;SDS011;51094;53.864;27.676;2023-04-12T05:58:24;4.97;;;4.88;;
64678;SDS011;51094;53.864;27.676;2023-04-12T06:00:53;4.90;;;4.80;;
64678;SDS011;51094;53.864;27.676;2023-04-12T06:03:21;4.80;;;4.70;;
64678;SDS011;51094;53.864;27.676;2023-04-12T06:05:55;4.47;;;4.38;;
64678;SDS011;51094;53.864;27.676;2023-04-12T06:08:22;4.78;;;4.68;;
64678;SDS011;51094;53.864;27.676;2023-04-12T06:10:49;5.00;;;4.80;;
64678;SDS011;51094;53.864;27.676;2023-04-12T06:13:16;4.45;;;4.35;;
64678;SDS011;51094;53.864;27.676;2023-04-12T06:15:44;4.65;;;4.55;;
64678;SDS011;51094;53.864;27.676;2023-04-12T06:18:11;4.60;;;4.50;;
64678;SDS011;51094;53.864;27.676;2023-04-12T06:20:38;4.55;;;4.45;;
64678;SDS011;51094;53.864;27.676;2023-04-12T06:23:06;4.70;;;4.60;;
64678;SDS011;51094;53.864;27.676;2023-04-12T06:25:33;4.68;;;4.50;;
64678;SDS011;51094;53.864;27.676;2023-04-12T06:28:01;4.68;;;4.57;;
64678;SDS011;51094;53.864;27.676;2023-04-12T06:30:30;4.28;;;4.18;;
64678;SDS011;51094;53.864;27.676;2023-04-12T06:32:57;4.70;;;4.60;;
64678;SDS011;51094;53.864;27.676;2023-04-12T06:35:24;4.60;;;4.50;;
64678;SDS011;51094;53.864;27.676;2023-04-12T06:37:50;4.80;;;4.70;;
64678;SDS011;51094;53.864;27.676;2023-04-12T06:40:17;4.93;;;4.82;;
64678;SDS011;51094;53.864;27.676;2023-04-12T06:42:44;4.88;;;4.78;;
64678;SDS011;51094;53.864;27.676;2023-04-12T06:45:11;4.60;;;4.50;;
64678;SDS011;51094;53.864;27.676;2023-04-12T06:47:37;4.90;;;4.80;;
64678;SDS011;51094;53.864;27.676;2023-04-12T06:50:04;5.20;;;5.00;;
64678;SDS011;51094;53.864;27.676;2023-04-12T06:52:32;4.80;;;4.70;;
64678;SDS011;51094;53.864;27.676;2023-04-12T06:54:59;4.65;;;4.55;;
64678;SDS011;51094;53.864;27.676;2023-04-12T06:57:26;4.50;;;4.40;;
64678;SDS011;51094;53.864;27.676;2023-04-12T06:59:53;4.65;;;4.55;;
64678;SDS011;51094;53.864;27.676;2023-04-12T07:02:19;4.70;;;4.60;;
64678;SDS011;51094;53.864;27.676;2023-04-12T07:04:50;4.50;;;4.40;;
64678;SDS011;51094;53.864;27.676;2023-04-12T07:07:18;4.50;;;4.40;;
64678;SDS011;51094;53.864;27.676;2023-04-12T07:09:46;4.57;;;4.47;;
64678;SDS011;51094;53.864;27.676;2023-04-12T07:12:13;4.47;;;4.38;;
64678;SDS011;51094;53.864;27.676;2023-04-12T07:14:40;4.10;;;4.00;;
64678;SDS011;51094;53.864;27.676;2023-04-12T07:17:10;4.53;;;4.43;;
64678;SDS011;51094;53.864;27.676;2023-04-12T07:19:36;4.40;;;4.30;;
64678;SDS011;51094;53.864;27.676;2023-04-12T07:22:04;4.57;;;4.47;;
64678;SDS011;51094;53.864;27.676;2023-04-12T07:24:31;4.10;;;4.00;;
64678;SDS011;51094;53.864;27.676;2023-04-12T07:26:58;4.60;;;4.50;;
64678;SDS011;51094;53.864;27.676;2023-04-12T07:29:25;4.45;;;4.35;;
64678;SDS011;51094;53.864;27.676;2023-04-12T07:31:52;4.18;;;4.07;;
64678;SDS011;51094;53.864;27.676;2023-04-12T07:34:19;4.25;;;4.15;;
64678;SDS011;51094;53.864;27.676;2023-04-12T07:36:46;4.28;;;4.18;;
64678;SDS011;51094;53.864;27.676;2023-04-12T07:39:13;4.15;;;4.05;;
64678;SDS011;51094;53.864;27.676;2023-04-12T07:41:41;3.85;;;3.75;;
64678;SDS011;51094;53.864;27.676;2023-04-12T07:44:11;3.80;;;3.70;;
64678;SDS011;51094;53.864;27.676;2023-04-12T07:46:38;4.07;;;3.97;;
64678;SDS011;51094;53.864;27.676;2023-04-12T07:49:05;4.00;;;3.90;;
64678;SDS011;51094;53.864;27.676;2023-04-12T07:51:32;4.13;;;4.03;;
64678;SDS011;51094;53.864;27.676;2023-04-12T07:53:59;3.78;;;3.67;;
64678;SDS011;51094;53.864;27.676;2023-04-12T07:56:26;3.95;;;3.85;;
64678;SDS011;51094;53.864;27.676;2023-04-12T07:58:53;3.58;;;3.47;;
64678;SDS011;51094;53.864;27.676;2023-04-12T08:01:20;3.90;;;3.80;;
64678;SDS011;51094;53.864;27.676;2023-04-12T08:03:46;3.90;;;3.80;;
64678;SDS011;51094;53.864;27.676;2023-04-12T08:06:13;3.88;;;3.78;;
64678;SDS011;51094;53.864;27.676;2023-04-12T08:08:41;4.90;;;4.80;;
64678;SDS011;51094;53.864;27.676;2023-04-12T08:11:07;5.50;;;5.30;;
64678;SDS011;51094;53.864;27.676;2023-04-12T08:13:34;5.18;;;5.05;;
64678;SDS011;51094;53.864;27.676;2023-04-12T08:16:01;4.18;;;4.07;;
64678;SDS011;51094;53.864;27.676;2023-04-12T08:18:28;3.70;;;3.60;;
64678;SDS011;51094;53.864;27.676;2023-04-12T08:20:56;3.53;;;3.42;;
64678;SDS011;51094;53.864;27.676;2023-04-12T08:23:24;3.60;;;3.50;;
64678;SDS011;51094;53.864;27.676;2023-04-12T08:25:51;3.72;;;3.63;;
64678;SDS011;51094;53.864;27.676;2023-04-12T08:28:28;3.95;;;3.75;;
64678;SDS011;51094;53.864;27.676;2023-04-12T08:30:56;3.55;;;3.45;;
64678;SDS011;51094;53.864;27.676;2023-04-12T08:33:24;3.30;;;3.20;;
64678;SDS011;51094;53.864;27.676;2023-04-12T08:35:52;3.10;;;3.00;;
64678;SDS011;51094;53.864;27.676;2023-04-12T08:38:19;3.67;;;3.58;;
64678;SDS011;51094;53.864;27.676;2023-04-12T08:40:56;3.50;;;3.40;;
64678;SDS011;51094;53.864;27.676;2023-04-12T08:43:25;3.28;;;3.22;;
64678;SDS011;51094;53.864;27.676;2023-04-12T08:45:54;3.20;;;3.10;;
64678;SDS011;51094;53.864;27.676;2023-04-12T08:48:24;3.42;;;3.42;;
64678;SDS011;51094;53.864;27.676;2023-04-12T08:50:51;3.30;;;3.20;;
64678;SDS011;51094;53.864;27.676;2023-04-12T08:53:20;3.47;;;3.38;;
64678;SDS011;51094;53.864;27.676;2023-04-12T08:55:46;3.50;;;3.40;;
64678;SDS011;51094;53.864;27.676;2023-04-12T08:58:14;3.35;;;3.25;;
64678;SDS011;51094;53.864;27.676;2023-04-12T09:00:41;3.67;;;3.58;;
64678;SDS011;51094;53.864;27.676;2023-04-12T09:03:09;3.13;;;3.03;;
64678;SDS011;51094;53.864;27.676;2023-04-12T09:05:37;3.30;;;3.20;;
64678;SDS011;51094;53.864;27.676;2023-04-12T09:08:04;3.30;;;3.20;;
64678;SDS011;51094;53.864;27.676;2023-04-12T09:13:05;3.33;;;3.28;;
64678;SDS011;51094;53.864;27.676;2023-04-12T09:15:33;3.28;;;3.20;;
64678;SDS011;51094;53.864;27.676;2023-04-12T09:18:09;3.60;;;3.50;;
64678;SDS011;51094;53.864;27.676;2023-04-12T09:20:42;3.13;;;3.13;;
64678;SDS011;51094;53.864;27.676;2023-04-12T09:23:21;2.92;;;2.90;;
64678;SDS011;51094;53.864;27.676;2023-04-12T09:25:52;3.08;;;3.08;;
64678;SDS011;51094;53.864;27.676;2023-04-12T09:28:20;3.03;;;2.92;;
64678;SDS011;51094;53.864;27.676;2023-04-12T09:30:47;3.40;;;3.30;;
64678;SDS011;51094;53.864;27.676;2023-04-12T09:33:18;3.30;;;3.30;;
64678;SDS011;51094;53.864;27.676;2023-04-12T09:35:46;3.20;;;3.10;;
64678;SDS011;51094;53.864;27.676;2023-04-12T09:38:14;2.80;;;2.80;;
64678;SDS011;51094;53.864;27.676;2023-04-12T09:40:41;2.83;;;2.83;;
64678;SDS011;51094;53.864;27.676;2023-04-12T09:43:08;2.70;;;2.70;;
64678;SDS011;51094;53.864;27.676;2023-04-12T09:45:35;2.75;;;2.75;;
64678;SDS011;51094;53.864;27.676;2023-04-12T09:48:05;2.85;;;2.85;;
64678;SDS011;51094;53.864;27.676;2023-04-12T09:50:32;2.60;;;2.60;;
64678;SDS011;51094;53.864;27.676;2023-04-12T09:53:00;2.88;;;2.78;;
64678;SDS011;51094;53.864;27.676;2023-04-12T09:55:29;2.60;;;2.50;;
64678;SDS011;51094;53.864;27.676;2023-04-12T09:58:00;2.50;;;2.50;;
64678;SDS011;51094;53.864;27.676;2023-04-12T10:00:29;2.55;;;2.55;;
64678;SDS011;51094;53.864;27.676;2023-04-12T10:03:00;2.70;;;2.60;;
64678;SDS011;51094;53.864;27.676;2023-04-12T10:05:27;2.70;;;2.60;;
64678;SDS011;51094;53.864;27.676;2023-04-12T10:07:57;3.05;;;2.85;;
64678;SDS011;51094;53.864;27.676;2023-04-12T10:10:27;2.90;;;2.80;;
64678;SDS011;51094;53.864;27.676;2023-04-12T10:12:55;2.67;;;2.58;;
64678;SDS011;51094;53.864;27.676;2023-04-12T10:15:24;2.63;;;2.53;;
64678;SDS011;51094;53.864;27.676;2023-04-12T10:17:56;2.55;;;2.47;;
64678;SDS011;51094;53.864;27.676;2023-04-12T10:20:23;2.55;;;2.50;;
64678;SDS011;51094;53.864;27.676;2023-04-12T10:22:55;2.70;;;2.60;;
64678;SDS011;51094;53.864;27.676;2023-04-12T10:25:24;2.60;;;2.60;;
64678;SDS011;51094;53.864;27.676;2023-04-12T10:27:52;2.75;;;2.65;;
64678;SDS011;51094;53.864;27.676;2023-04-12T10:30:20;2.50;;;2.40;;
64678;SDS011;51094;53.864;27.676;2023-04-12T10:32:48;2.28;;;2.20;;
64678;SDS011;51094;53.864;27.676;2023-04-12T10:38:17;2.42;;;2.40;;
64678;SDS011;51094;53.864;27.676;2023-04-12T10:43:36;2.40;;;2.40;;
64678;SDS011;51094;53.864;27.676;2023-04-12T10:46:03;2.40;;;2.40;;
64678;SDS011;51094;53.864;27.676;2023-04-12T10:51:14;2.40;;;2.33;;
64678;SDS011;51094;53.864;27.676;2023-04-12T10:56:45;2.40;;;2.40;;
64678;SDS011;51094;53.864;27.676;2023-04-12T10:59:22;2.47;;;2.47;;
64678;SDS011;51094;53.864;27.676;2023-04-12T11:04:33;2.35;;;2.35;;
64678;SDS011;51094;53.864;27.676;2023-04-12T11:07:10;2.30;;;2.30;;
64678;SDS011;51094;53.864;27.676;2023-04-12T11:09:39;2.20;;;2.20;;
64678;SDS011;51094;53.864;27.676;2023-04-12T11:12:12;2.13;;;2.13;;
64678;SDS011;51094;53.864;27.676;2023-04-12T11:14:45;2.07;;;2.07;;
64678;SDS011;51094;53.864;27.676;2023-04-12T11:17:21;2.08;;;2.03;;
64678;SDS011;51094;53.864;27.676;2023-04-12T11:22:22;2.20;;;2.20;;
64678;SDS011;51094;53.864;27.676;2023-04-12T11:27:19;2.15;;;2.15;;
64678;SDS011;51094;53.864;27.676;2023-04-12T11:29:48;2.20;;;2.20;;
64678;SDS011;51094;53.864;27.676;2023-04-12T11:32:22;2.08;;;2.00;;
64678;SDS011;51094;53.864;27.676;2023-04-12T11:34:50;2.15;;;2.15;;
64678;SDS011;51094;53.864;27.676;2023-04-12T11:37:17;2.17;;;2.17;;
64678;SDS011;51094;53.864;27.676;2023-04-12T11:39:46;2.23;;;2.23;;
64678;SDS011;51094;53.864;27.676;2023-04-12T11:42:18;2.13;;;2.13;;
64678;SDS011;51094;53.864;27.676;2023-04-12T11:44:46;1.80;;;1.80;;
64678;SDS011;51094;53.864;27.676;2023-04-12T11:47:24;2.00;;;2.00;;
64678;SDS011;51094;53.864;27.676;2023-04-12T11:49:55;1.90;;;1.90;;
64678;SDS011;51094;53.864;27.676;2023-04-12T11:52:26;2.10;;;2.00;;
64678;SDS011;51094;53.864;27.676;2023-04-12T11:54:59;2.20;;;2.10;;
64678;SDS011;51094;53.864;27.676;2023-04-12T11:57:30;1.90;;;1.80;;
64678;SDS011;51094;53.864;27.676;2023-04-12T11:59:57;2.08;;;2.03;;
64678;SDS011;51094;53.864;27.676;2023-04-12T12:02:25;1.77;;;1.77;;
64678;SDS011;51094;53.864;27.676;2023-04-12T12:05:00;1.90;;;1.90;;
64678;SDS011;51094;53.864;27.676;2023-04-12T12:07:27;1.92;;;1.92;;
64678;SDS011;51094;53.864;27.676;2023-04-12T12:09:55;2.05;;;2.00;;
64678;SDS011;51094;53.864;27.676;2023-04-12T12:12:22;1.95;;;1.95;;
64678;SDS011;51094;53.864;27.676;2023-04-12T12:14:49;2.00;;;2.00;;
64678;SDS011;51094;53.864;27.676;2023-04-12T12:17:17;1.70;;;1.70;;
64678;SDS011;51094;53.864;27.676;2023-04-12T12:19:45;1.80;;;1.70;;
64678;SDS011;51094;53.864;27.676;2023-04-12T12:22:20;1.60;;;1.60;;
64678;SDS011;51094;53.864;27.676;2023-04-12T12:24:51;1.90;;;1.80;;
64678;SDS011;51094;53.864;27.676;2023-04-12T12:27:22;1.80;;;1.80;;
64678;SDS011;51094;53.864;27.676;2023-04-12T12:29:52;2.00;;;2.00;;
64678;SDS011;51094;53.864;27.676;2023-04-12T12:32:20;2.10;;;2.10;;
64678;SDS011;51094;53.864;27.676;2023-04-12T12:34:50;2.10;;;2.00;;
64678;SDS011;51094;53.864;27.676;2023-04-12T12:37:24;2.13;;;2.03;;
64678;SDS011;51094;53.864;27.676;2023-04-12T12:45:17;1.90;;;1.80;;
64678;SDS011;51094;53.864;27.676;2023-04-12T12:47:47;1.50;;;1.50;;
64678;SDS011;51094;53.864;27.676;2023-04-12T12:50:18;1.52;;;1.52;;
64678;SDS011;51094;53.864;27.676;2023-04-12T12:52:50;2.00;;;2.00;;
64678;SDS011;51094;53.864;27.676;2023-04-12T12:55:18;2.20;;;2.10;;
64678;SDS011;51094;53.864;27.676;2023-04-12T12:57:47;1.80;;;1.80;;
64678;SDS011;51094;53.864;27.676;2023-04-12T13:00:32;2.13;;;2.03;;
64678;SDS011;51094;53.864;27.676;2023-04-12T13:02:59;1.80;;;1.80;;
64678;SDS011;51094;53.864;27.676;2023-04-12T13:05:27;1.92;;;1.90;;
64678;SDS011;51094;53.864;27.676;2023-04-12T13:07:55;1.58;;;1.58;;
64678;SDS011;51094;53.864;27.676;2023-04-12T13:10:22;1.58;;;1.58;;
64678;SDS011;51094;53.864;27.676;2023-04-12T13:12:49;1.48;;;1.48;;
64678;SDS011;51094;53.864;27.676;2023-04-12T13:15:16;1.70;;;1.70;;
64678;SDS011;51094;53.864;27.676;2023-04-12T13:17:50;1.50;;;1.50;;
64678;SDS011;51094;53.864;27.676;2023-04-12T13:20:18;1.50;;;1.50;;
64678;SDS011;51094;53.864;27.676;2023-04-12T13:22:45;1.45;;;1.45;;
64678;SDS011;51094;53.864;27.676;2023-04-12T13:25:12;1.42;;;1.42;;
64678;SDS011;51094;53.864;27.676;2023-04-12T13:27:39;1.80;;;1.80;;
64678;SDS011;51094;53.864;27.676;2023-04-12T13:30:06;2.10;;;2.10;;
64678;SDS011;51094;53.864;27.676;2023-04-12T13:32:33;1.52;;;1.52;;
64678;SDS011;51094;53.864;27.676;2023-04-12T13:35:01;1.42;;;1.42;;
64678;SDS011;51094;53.864;27.676;2023-04-12T13:37:29;1.55;;;1.55;;
64678;SDS011;51094;53.864;27.676;2023-04-12T13:39:56;1.50;;;1.50;;
64678;SDS011;51094;53.864;27.676;2023-04-12T13:42:23;1.60;;;1.60;;
64678;SDS011;51094;53.864;27.676;2023-04-12T13:44:50;1.67;;;1.67;;
64678;SDS011;51094;53.864;27.676;2023-04-12T13:47:17;1.40;;;1.40;;
64678;SDS011;51094;53.864;27.676;2023-04-12T13:49:44;1.73;;;1.73;;
64678;SDS011;51094;53.864;27.676;2023-04-12T13:52:12;1.60;;;1.60;;
64678;SDS011;51094;53.864;27.676;2023-04-12T13:54:39;1.40;;;1.40;;
64678;SDS011;51094;53.864;27.676;2023-04-12T13:57:09;1.30;;;1.30;;
64678;SDS011;51094;53.864;27.676;2023-04-12T13:59:36;1.40;;;1.40;;
64678;SDS011;51094;53.864;27.676;2023-04-12T14:02:03;1.30;;;1.30;;
64678;SDS011;51094;53.864;27.676;2023-04-12T14:04:30;1.40;;;1.40;;
64678;SDS011;51094;53.864;27.676;2023-04-12T14:06:57;1.27;;;1.27;;
64678;SDS011;51094;53.864;27.676;2023-04-12T14:11:56;1.30;;;1.30;;
64678;SDS011;51094;53.864;27.676;2023-04-12T14:14:25;1.50;;;1.50;;
64678;SDS011;51094;53.864;27.676;2023-04-12T14:16:53;1.40;;;1.40;;
64678;SDS011;51094;53.864;27.676;2023-04-12T14:19:23;1.40;;;1.40;;
64678;SDS011;51094;53.864;27.676;2023-04-12T14:21:51;1.40;;;1.40;;
64678;SDS011;51094;53.864;27.676;2023-04-12T14:24:18;1.60;;;1.60;;
64678;SDS011;51094;53.864;27.676;2023-04-12T14:26:46;1.40;;;1.40;;
64678;SDS011;51094;53.864;27.676;2023-04-12T14:29:15;1.60;;;1.60;;
64678;SDS011;51094;53.864;27.676;2023-04-12T14:31:42;1.45;;;1.45;;
64678;SDS011;51094;53.864;27.676;2023-04-12T14:34:09;1.60;;;1.60;;
64678;SDS011;51094;53.864;27.676;2023-04-12T14:36:37;1.70;;;1.70;;
64678;SDS011;51094;53.864;27.676;2023-04-12T14:39:04;1.60;;;1.60;;
64678;SDS011;51094;53.864;27.676;2023-04-12T14:41:35;1.63;;;1.63;;
64678;SDS011;51094;53.864;27.676;2023-04-12T14:44:04;1.50;;;1.50;;
64678;SDS011;51094;53.864;27.676;2023-04-12T14:46:31;1.70;;;1.70;;
64678;SDS011;51094;53.864;27.676;2023-04-12T14:48:58;1.50;;;1.50;;
64678;SDS011;51094;53.864;27.676;2023-04-12T14:51:27;1.50;;;1.50;;
64678;SDS011;51094;53.864;27.676;2023-04-12T14:53:55;1.80;;;1.80;;
64678;SDS011;51094;53.864;27.676;2023-04-12T14:56:23;1.80;;;1.80;;
64678;SDS011;51094;53.864;27.676;2023-04-12T14:58:56;1.70;;;1.70;;
64678;SDS011;51094;53.864;27.676;2023-04-12T15:01:23;1.70;;;1.70;;
64678;SDS011;51094;53.864;27.676;2023-04-12T15:03:51;1.70;;;1.70;;
64678;SDS011;51094;53.864;27.676;2023-04-12T15:06:20;2.00;;;2.00;;
64678;SDS011;51094;53.864;27.676;2023-04-12T15:08:52;1.80;;;1.80;;
64678;SDS011;51094;53.864;27.676;2023-04-12T15:11:20;2.00;;;2.00;;
64678;SDS011;51094;53.864;27.676;2023-04-12T15:13:52;2.00;;;2.00;;
64678;SDS011;51094;53.864;27.676;2023-04-12T15:16:21;1.88;;;1.88;;
64678;SDS011;51094;53.864;27.676;2023-04-12T15:18:49;1.92;;;1.92;;
64678;SDS011;51094;53.864;27.676;2023-04-12T15:21:17;2.05;;;1.95;;
64678;SDS011;51094;53.864;27.676;2023-04-12T15:23:44;1.83;;;1.83;;
64678;SDS011;51094;53.864;27.676;2023-04-12T15:26:11;1.80;;;1.80;;